sensor_id;sensor_type;location;lat;lon;timestamp;temperature;humidity
33827;DHT22;20128;45.582;5.298;2024-03-08T00:00:51;11.10;78.20
33827;DHT22;20128;45.582;5.298;2024-03-08T00:03:17;11.00;78.50
33827;DHT22;20128;45.582;5.298;2024-03-08T00:05:42;10.90;78.50
33827;DHT22;20128;45.582;5.298;2024-03-08T00:08:08;10.90;78.80
33827;DHT22;20128;45.582;5.298;2024-03-08T00:10:36;10.80;79.00
33827;DHT22;20128;45.582;5.298;2024-03-08T00:13:02;10.70;79.10
33827;DHT22;20128;45.582;5.298;2024-03-08T00:15:29;10.70;79.30
33827;DHT22;20128;45.582;5.298;2024-03-08T00:17:57;10.70;79.40
33827;DHT22;20128;45.582;5.298;2024-03-08T00:20:23;10.60;79.40
33827;DHT22;20128;45.582;5.298;2024-03-08T00:22:49;10.60;79.60
33827;DHT22;20128;45.582;5.298;2024-03-08T00:25:14;10.60;79.90
33827;DHT22;20128;45.582;5.298;2024-03-08T00:27:40;10.50;80.10
33827;DHT22;20128;45.582;5.298;2024-03-08T00:30:09;10.50;80.30
33827;DHT22;20128;45.582;5.298;2024-03-08T00:32:36;10.50;80.30
33827;DHT22;20128;45.582;5.298;2024-03-08T00:35:02;10.50;80.40
33827;DHT22;20128;45.582;5.298;2024-03-08T00:37:28;10.40;80.60
33827;DHT22;20128;45.582;5.298;2024-03-08T00:39:53;10.30;80.70
33827;DHT22;20128;45.582;5.298;2024-03-08T00:42:20;10.30;80.80
33827;DHT22;20128;45.582;5.298;2024-03-08T00:44:47;10.20;80.60
33827;DHT22;20128;45.582;5.298;2024-03-08T00:47:13;10.20;80.20
33827;DHT22;20128;45.582;5.298;2024-03-08T00:49:41;10.10;80.00
33827;DHT22;20128;45.582;5.298;2024-03-08T00:52:07;10.10;79.60
33827;DHT22;20128;45.582;5.298;2024-03-08T00:54:36;10.10;79.40
33827;DHT22;20128;45.582;5.298;2024-03-08T00:57:02;10.00;79.50
33827;DHT22;20128;45.582;5.298;2024-03-08T00:59:29;10.10;78.30
33827;DHT22;20128;45.582;5.298;2024-03-08T01:01:54;10.10;78.20
33827;DHT22;20128;45.582;5.298;2024-03-08T01:04:20;10.00;77.90
33827;DHT22;20128;45.582;5.298;2024-03-08T01:06:47;10.00;77.90
33827;DHT22;20128;45.582;5.298;2024-03-08T01:09:13;9.90;77.90
33827;DHT22;20128;45.582;5.298;2024-03-08T01:11:38;9.90;77.90
33827;DHT22;20128;45.582;5.298;2024-03-08T01:14:04;9.80;78.00
33827;DHT22;20128;45.582;5.298;2024-03-08T01:16:30;9.80;78.10
33827;DHT22;20128;45.582;5.298;2024-03-08T01:18:56;9.90;78.00
33827;DHT22;20128;45.582;5.298;2024-03-08T01:21:22;9.90;77.50
33827;DHT22;20128;45.582;5.298;2024-03-08T01:23:47;9.70;77.40
33827;DHT22;20128;45.582;5.298;2024-03-08T01:26:13;9.50;77.70
33827;DHT22;20128;45.582;5.298;2024-03-08T01:28:40;9.50;77.90
33827;DHT22;20128;45.582;5.298;2024-03-08T01:31:06;9.50;77.70
33827;DHT22;20128;45.582;5.298;2024-03-08T01:33:31;9.40;77.60
33827;DHT22;20128;45.582;5.298;2024-03-08T01:35:58;9.30;77.30
33827;DHT22;20128;45.582;5.298;2024-03-08T01:38:23;9.20;77.40
33827;DHT22;20128;45.582;5.298;2024-03-08T01:40:49;9.10;77.50
33827;DHT22;20128;45.582;5.298;2024-03-08T01:43:20;9.10;77.60
33827;DHT22;20128;45.582;5.298;2024-03-08T01:45:47;9.00;77.60
33827;DHT22;20128;45.582;5.298;2024-03-08T01:48:16;9.00;78.00
33827;DHT22;20128;45.582;5.298;2024-03-08T01:50:43;8.90;78.00
33827;DHT22;20128;45.582;5.298;2024-03-08T01:53:09;8.90;78.20
33827;DHT22;20128;45.582;5.298;2024-03-08T01:55:40;8.90;78.20
33827;DHT22;20128;45.582;5.298;2024-03-08T01:58:06;8.90;78.10
33827;DHT22;20128;45.582;5.298;2024-03-08T02:00:35;8.90;78.20
33827;DHT22;20128;45.582;5.298;2024-03-08T02:03:02;9.00;77.90
33827;DHT22;20128;45.582;5.298;2024-03-08T02:05:28;9.10;77.50
33827;DHT22;20128;45.582;5.298;2024-03-08T02:07:54;9.20;77.20
33827;DHT22;20128;45.582;5.298;2024-03-08T02:10:20;9.30;77.10
33827;DHT22;20128;45.582;5.298;2024-03-08T02:12:47;9.30;76.90
33827;DHT22;20128;45.582;5.298;2024-03-08T02:15:13;9.20;76.80
33827;DHT22;20128;45.582;5.298;2024-03-08T02:17:40;9.20;76.70
33827;DHT22;20128;45.582;5.298;2024-03-08T02:20:07;9.20;76.90
33827;DHT22;20128;45.582;5.298;2024-03-08T02:22:34;9.20;77.00
33827;DHT22;20128;45.582;5.298;2024-03-08T02:25:00;9.20;77.00
33827;DHT22;20128;45.582;5.298;2024-03-08T02:27:27;9.20;76.80
33827;DHT22;20128;45.582;5.298;2024-03-08T02:29:55;9.20;76.70
33827;DHT22;20128;45.582;5.298;2024-03-08T02:32:24;9.20;76.60
33827;DHT22;20128;45.582;5.298;2024-03-08T02:34:50;9.20;76.40
33827;DHT22;20128;45.582;5.298;2024-03-08T02:37:19;9.00;76.30
33827;DHT22;20128;45.582;5.298;2024-03-08T02:39:44;8.80;77.30
33827;DHT22;20128;45.582;5.298;2024-03-08T02:42:10;8.70;77.00
33827;DHT22;20128;45.582;5.298;2024-03-08T02:44:36;8.60;77.30
33827;DHT22;20128;45.582;5.298;2024-03-08T02:47:02;8.50;77.40
33827;DHT22;20128;45.582;5.298;2024-03-08T02:49:28;8.30;77.80
33827;DHT22;20128;45.582;5.298;2024-03-08T02:51:54;8.30;77.90
33827;DHT22;20128;45.582;5.298;2024-03-08T02:54:21;8.20;78.50
33827;DHT22;20128;45.582;5.298;2024-03-08T02:56:47;8.20;78.30
33827;DHT22;20128;45.582;5.298;2024-03-08T02:59:15;8.10;78.40
33827;DHT22;20128;45.582;5.298;2024-03-08T03:01:43;8.20;78.50
33827;DHT22;20128;45.582;5.298;2024-03-08T03:04:09;8.20;78.40
33827;DHT22;20128;45.582;5.298;2024-03-08T03:06:34;8.20;78.10
33827;DHT22;20128;45.582;5.298;2024-03-08T03:09:01;8.10;78.30
33827;DHT22;20128;45.582;5.298;2024-03-08T03:11:27;8.30;78.30
33827;DHT22;20128;45.582;5.298;2024-03-08T03:13:53;8.30;78.10
33827;DHT22;20128;45.582;5.298;2024-03-08T03:16:19;8.30;78.30
33827;DHT22;20128;45.582;5.298;2024-03-08T03:18:48;8.30;78.20
33827;DHT22;20128;45.582;5.298;2024-03-08T03:21:14;8.30;78.10
33827;DHT22;20128;45.582;5.298;2024-03-08T03:23:40;8.20;78.20
33827;DHT22;20128;45.582;5.298;2024-03-08T03:26:10;8.20;78.30
33827;DHT22;20128;45.582;5.298;2024-03-08T03:28:42;8.30;78.10
33827;DHT22;20128;45.582;5.298;2024-03-08T03:31:08;8.50;77.90
33827;DHT22;20128;45.582;5.298;2024-03-08T03:33:39;8.50;77.70
33827;DHT22;20128;45.582;5.298;2024-03-08T03:36:05;8.60;77.60
33827;DHT22;20128;45.582;5.298;2024-03-08T03:38:31;8.60;77.50
33827;DHT22;20128;45.582;5.298;2024-03-08T03:40:57;8.70;77.50
33827;DHT22;20128;45.582;5.298;2024-03-08T03:43:29;8.70;77.40
33827;DHT22;20128;45.582;5.298;2024-03-08T03:45:55;8.70;77.50
33827;DHT22;20128;45.582;5.298;2024-03-08T03:48:21;8.70;77.40
33827;DHT22;20128;45.582;5.298;2024-03-08T03:50:46;8.70;77.30
33827;DHT22;20128;45.582;5.298;2024-03-08T03:53:12;8.70;77.30
33827;DHT22;20128;45.582;5.298;2024-03-08T03:55:38;8.60;77.30
33827;DHT22;20128;45.582;5.298;2024-03-08T03:58:04;8.60;77.50
33827;DHT22;20128;45.582;5.298;2024-03-08T04:00:30;8.60;77.50
33827;DHT22;20128;45.582;5.298;2024-03-08T04:02:55;8.60;77.60
33827;DHT22;20128;45.582;5.298;2024-03-08T04:05:24;8.60;77.80
33827;DHT22;20128;45.582;5.298;2024-03-08T04:07:50;8.60;77.70
33827;DHT22;20128;45.582;5.298;2024-03-08T04:10:15;8.40;78.30
33827;DHT22;20128;45.582;5.298;2024-03-08T04:12:41;8.20;78.60
33827;DHT22;20128;45.582;5.298;2024-03-08T04:15:07;8.20;79.00
33827;DHT22;20128;45.582;5.298;2024-03-08T04:17:34;8.20;79.40
33827;DHT22;20128;45.582;5.298;2024-03-08T04:20:03;8.10;79.50
33827;DHT22;20128;45.582;5.298;2024-03-08T04:22:36;8.10;79.50
33827;DHT22;20128;45.582;5.298;2024-03-08T04:25:03;8.10;79.60
33827;DHT22;20128;45.582;5.298;2024-03-08T04:27:28;8.20;79.50
33827;DHT22;20128;45.582;5.298;2024-03-08T04:29:54;8.30;79.30
33827;DHT22;20128;45.582;5.298;2024-03-08T04:32:20;8.30;79.10
33827;DHT22;20128;45.582;5.298;2024-03-08T04:34:45;8.40;79.00
33827;DHT22;20128;45.582;5.298;2024-03-08T04:37:11;8.30;79.00
33827;DHT22;20128;45.582;5.298;2024-03-08T04:39:39;8.30;79.00
33827;DHT22;20128;45.582;5.298;2024-03-08T04:42:05;8.30;79.10
33827;DHT22;20128;45.582;5.298;2024-03-08T04:44:35;8.30;79.70
33827;DHT22;20128;45.582;5.298;2024-03-08T04:47:01;8.20;79.20
33827;DHT22;20128;45.582;5.298;2024-03-08T04:49:27;8.10;79.50
33827;DHT22;20128;45.582;5.298;2024-03-08T04:51:53;8.20;79.90
33827;DHT22;20128;45.582;5.298;2024-03-08T04:54:19;8.10;79.70
33827;DHT22;20128;45.582;5.298;2024-03-08T04:56:44;8.10;79.80
33827;DHT22;20128;45.582;5.298;2024-03-08T04:59:10;8.00;79.90
33827;DHT22;20128;45.582;5.298;2024-03-08T05:01:36;7.80;80.90
33827;DHT22;20128;45.582;5.298;2024-03-08T05:04:04;7.60;80.70
33827;DHT22;20128;45.582;5.298;2024-03-08T05:06:31;7.50;81.20
33827;DHT22;20128;45.582;5.298;2024-03-08T05:08:56;7.50;81.70
33827;DHT22;20128;45.582;5.298;2024-03-08T05:11:22;7.50;81.70
33827;DHT22;20128;45.582;5.298;2024-03-08T05:13:48;7.60;81.90
33827;DHT22;20128;45.582;5.298;2024-03-08T05:16:13;7.50;81.70
33827;DHT22;20128;45.582;5.298;2024-03-08T05:18:41;7.50;81.80
33827;DHT22;20128;45.582;5.298;2024-03-08T05:21:07;7.50;82.10
33827;DHT22;20128;45.582;5.298;2024-03-08T05:23:34;7.30;82.20
33827;DHT22;20128;45.582;5.298;2024-03-08T05:26:00;7.30;82.60
33827;DHT22;20128;45.582;5.298;2024-03-08T05:28:26;7.40;82.60
33827;DHT22;20128;45.582;5.298;2024-03-08T05:30:52;7.30;82.60
33827;DHT22;20128;45.582;5.298;2024-03-08T05:33:17;7.30;82.60
33827;DHT22;20128;45.582;5.298;2024-03-08T05:35:44;7.30;82.60
33827;DHT22;20128;45.582;5.298;2024-03-08T05:38:10;7.30;82.60
33827;DHT22;20128;45.582;5.298;2024-03-08T05:40:38;7.10;83.00
33827;DHT22;20128;45.582;5.298;2024-03-08T05:43:03;7.10;83.40
33827;DHT22;20128;45.582;5.298;2024-03-08T05:45:29;7.00;83.60
33827;DHT22;20128;45.582;5.298;2024-03-08T05:47:55;7.00;83.60
33827;DHT22;20128;45.582;5.298;2024-03-08T05:50:20;7.10;83.50
33827;DHT22;20128;45.582;5.298;2024-03-08T05:52:46;7.10;83.30
33827;DHT22;20128;45.582;5.298;2024-03-08T05:55:13;7.10;83.20
33827;DHT22;20128;45.582;5.298;2024-03-08T05:57:40;7.20;83.30
33827;DHT22;20128;45.582;5.298;2024-03-08T06:00:06;7.10;83.20
33827;DHT22;20128;45.582;5.298;2024-03-08T06:02:32;7.10;83.10
33827;DHT22;20128;45.582;5.298;2024-03-08T06:04:58;7.10;83.00
33827;DHT22;20128;45.582;5.298;2024-03-08T06:07:24;7.00;83.20
33827;DHT22;20128;45.582;5.298;2024-03-08T06:09:49;7.00;83.30
33827;DHT22;20128;45.582;5.298;2024-03-08T06:12:15;7.00;83.40
33827;DHT22;20128;45.582;5.298;2024-03-08T06:14:45;7.00;83.40
33827;DHT22;20128;45.582;5.298;2024-03-08T06:17:11;7.00;83.40
33827;DHT22;20128;45.582;5.298;2024-03-08T06:19:37;6.90;83.60
33827;DHT22;20128;45.582;5.298;2024-03-08T06:22:03;6.80;84.00
33827;DHT22;20128;45.582;5.298;2024-03-08T06:24:31;6.80;84.30
33827;DHT22;20128;45.582;5.298;2024-03-08T06:26:57;6.90;84.20
33827;DHT22;20128;45.582;5.298;2024-03-08T06:29:23;7.00;84.20
33827;DHT22;20128;45.582;5.298;2024-03-08T06:31:49;6.90;84.50
33827;DHT22;20128;45.582;5.298;2024-03-08T06:34:15;7.00;84.10
33827;DHT22;20128;45.582;5.298;2024-03-08T06:36:41;6.90;84.10
33827;DHT22;20128;45.582;5.298;2024-03-08T06:39:06;6.90;84.20
33827;DHT22;20128;45.582;5.298;2024-03-08T06:41:38;6.90;84.40
33827;DHT22;20128;45.582;5.298;2024-03-08T06:44:04;7.00;84.40
33827;DHT22;20128;45.582;5.298;2024-03-08T06:46:29;6.90;84.20
33827;DHT22;20128;45.582;5.298;2024-03-08T06:48:55;7.00;84.20
33827;DHT22;20128;45.582;5.298;2024-03-08T06:51:21;7.00;84.20
33827;DHT22;20128;45.582;5.298;2024-03-08T06:53:47;7.00;84.20
33827;DHT22;20128;45.582;5.298;2024-03-08T06:56:14;6.90;84.40
33827;DHT22;20128;45.582;5.298;2024-03-08T06:58:40;6.80;84.50
33827;DHT22;20128;45.582;5.298;2024-03-08T07:01:06;6.80;84.60
33827;DHT22;20128;45.582;5.298;2024-03-08T07:03:33;6.70;84.70
33827;DHT22;20128;45.582;5.298;2024-03-08T07:05:58;6.70;84.90
33827;DHT22;20128;45.582;5.298;2024-03-08T07:08:25;6.70;85.40
33827;DHT22;20128;45.582;5.298;2024-03-08T07:10:52;6.60;85.60
33827;DHT22;20128;45.582;5.298;2024-03-08T07:13:18;6.60;85.30
33827;DHT22;20128;45.582;5.298;2024-03-08T07:15:44;6.70;85.30
33827;DHT22;20128;45.582;5.298;2024-03-08T07:18:11;6.80;85.60
33827;DHT22;20128;45.582;5.298;2024-03-08T07:20:40;6.80;85.20
33827;DHT22;20128;45.582;5.298;2024-03-08T07:23:06;6.80;85.10
33827;DHT22;20128;45.582;5.298;2024-03-08T07:25:31;6.80;85.30
33827;DHT22;20128;45.582;5.298;2024-03-08T07:27:57;6.80;85.30
33827;DHT22;20128;45.582;5.298;2024-03-08T07:30:26;6.80;85.50
33827;DHT22;20128;45.582;5.298;2024-03-08T07:33:11;6.70;85.40
33827;DHT22;20128;45.582;5.298;2024-03-08T07:35:40;6.70;85.60
33827;DHT22;20128;45.582;5.298;2024-03-08T07:38:06;6.80;85.70
33827;DHT22;20128;45.582;5.298;2024-03-08T07:40:37;6.80;85.70
33827;DHT22;20128;45.582;5.298;2024-03-08T07:43:08;7.00;85.90
33827;DHT22;20128;45.582;5.298;2024-03-08T07:45:34;7.10;85.40
33827;DHT22;20128;45.582;5.298;2024-03-08T07:48:01;7.20;85.10
33827;DHT22;20128;45.582;5.298;2024-03-08T07:50:28;7.20;85.00
33827;DHT22;20128;45.582;5.298;2024-03-08T07:52:54;7.20;85.00
33827;DHT22;20128;45.582;5.298;2024-03-08T07:55:20;7.30;85.00
33827;DHT22;20128;45.582;5.298;2024-03-08T07:57:45;7.30;84.40
33827;DHT22;20128;45.582;5.298;2024-03-08T08:00:13;7.30;84.30
33827;DHT22;20128;45.582;5.298;2024-03-08T08:02:46;7.30;84.60
33827;DHT22;20128;45.582;5.298;2024-03-08T08:05:12;7.40;84.60
33827;DHT22;20128;45.582;5.298;2024-03-08T08:07:38;7.50;84.20
33827;DHT22;20128;45.582;5.298;2024-03-08T08:10:05;7.50;84.00
33827;DHT22;20128;45.582;5.298;2024-03-08T08:12:32;7.40;83.70
33827;DHT22;20128;45.582;5.298;2024-03-08T08:14:59;7.40;84.00
33827;DHT22;20128;45.582;5.298;2024-03-08T08:17:25;7.50;84.10
33827;DHT22;20128;45.582;5.298;2024-03-08T08:19:51;7.40;83.90
33827;DHT22;20128;45.582;5.298;2024-03-08T08:22:16;7.50;84.10
33827;DHT22;20128;45.582;5.298;2024-03-08T08:24:43;7.60;83.90
33827;DHT22;20128;45.582;5.298;2024-03-08T08:27:09;7.70;83.60
33827;DHT22;20128;45.582;5.298;2024-03-08T08:29:34;7.70;83.90
33827;DHT22;20128;45.582;5.298;2024-03-08T08:32:00;7.80;83.60
33827;DHT22;20128;45.582;5.298;2024-03-08T08:34:26;7.90;82.90
33827;DHT22;20128;45.582;5.298;2024-03-08T08:36:52;7.80;82.70
33827;DHT22;20128;45.582;5.298;2024-03-08T08:39:18;7.90;82.60
33827;DHT22;20128;45.582;5.298;2024-03-08T08:41:44;7.80;82.60
33827;DHT22;20128;45.582;5.298;2024-03-08T08:44:10;7.90;82.60
33827;DHT22;20128;45.582;5.298;2024-03-08T08:46:38;8.00;82.20
33827;DHT22;20128;45.582;5.298;2024-03-08T08:49:04;8.10;82.50
33827;DHT22;20128;45.582;5.298;2024-03-08T08:51:30;8.20;82.80
33827;DHT22;20128;45.582;5.298;2024-03-08T08:53:59;8.30;81.90
33827;DHT22;20128;45.582;5.298;2024-03-08T08:56:24;8.40;81.70
33827;DHT22;20128;45.582;5.298;2024-03-08T08:58:51;8.50;81.40
33827;DHT22;20128;45.582;5.298;2024-03-08T09:01:18;8.40;81.00
33827;DHT22;20128;45.582;5.298;2024-03-08T09:03:44;8.50;81.20
33827;DHT22;20128;45.582;5.298;2024-03-08T09:06:12;8.50;81.50
33827;DHT22;20128;45.582;5.298;2024-03-08T09:08:42;8.60;81.80
33827;DHT22;20128;45.582;5.298;2024-03-08T09:11:07;8.80;81.70
33827;DHT22;20128;45.582;5.298;2024-03-08T09:13:33;8.90;80.60
33827;DHT22;20128;45.582;5.298;2024-03-08T09:15:59;9.10;80.00
33827;DHT22;20128;45.582;5.298;2024-03-08T09:18:25;9.20;79.60
33827;DHT22;20128;45.582;5.298;2024-03-08T09:20:51;9.30;78.70
33827;DHT22;20128;45.582;5.298;2024-03-08T09:23:22;9.50;78.00
33827;DHT22;20128;45.582;5.298;2024-03-08T09:25:49;9.50;77.70
33827;DHT22;20128;45.582;5.298;2024-03-08T09:28:14;9.60;77.60
33827;DHT22;20128;45.582;5.298;2024-03-08T09:30:41;9.60;77.00
33827;DHT22;20128;45.582;5.298;2024-03-08T09:33:06;9.70;76.50
33827;DHT22;20128;45.582;5.298;2024-03-08T09:35:33;9.70;76.30
33827;DHT22;20128;45.582;5.298;2024-03-08T09:37:58;9.80;76.50
33827;DHT22;20128;45.582;5.298;2024-03-08T09:40:24;9.90;76.00
33827;DHT22;20128;45.582;5.298;2024-03-08T09:42:51;9.90;75.70
33827;DHT22;20128;45.582;5.298;2024-03-08T09:45:20;9.90;75.50
33827;DHT22;20128;45.582;5.298;2024-03-08T09:47:47;9.90;75.20
33827;DHT22;20128;45.582;5.298;2024-03-08T09:50:14;10.00;75.30
33827;DHT22;20128;45.582;5.298;2024-03-08T09:52:41;10.00;74.90
33827;DHT22;20128;45.582;5.298;2024-03-08T09:55:10;10.10;74.90
33827;DHT22;20128;45.582;5.298;2024-03-08T09:57:40;10.10;74.60
33827;DHT22;20128;45.582;5.298;2024-03-08T10:00:06;10.20;74.40
33827;DHT22;20128;45.582;5.298;2024-03-08T10:02:46;10.30;74.80
33827;DHT22;20128;45.582;5.298;2024-03-08T10:05:12;10.40;74.50
33827;DHT22;20128;45.582;5.298;2024-03-08T10:07:39;10.50;74.40
33827;DHT22;20128;45.582;5.298;2024-03-08T10:10:05;10.70;74.30
33827;DHT22;20128;45.582;5.298;2024-03-08T10:12:30;10.80;73.20
33827;DHT22;20128;45.582;5.298;2024-03-08T10:14:58;10.90;73.10
33827;DHT22;20128;45.582;5.298;2024-03-08T10:17:24;11.10;73.60
33827;DHT22;20128;45.582;5.298;2024-03-08T10:19:51;11.20;73.10
33827;DHT22;20128;45.582;5.298;2024-03-08T10:22:19;11.40;73.20
33827;DHT22;20128;45.582;5.298;2024-03-08T10:24:46;11.50;71.90
33827;DHT22;20128;45.582;5.298;2024-03-08T10:27:12;11.60;71.60
33827;DHT22;20128;45.582;5.298;2024-03-08T10:29:38;11.80;70.50
33827;DHT22;20128;45.582;5.298;2024-03-08T10:32:08;11.90;69.20
33827;DHT22;20128;45.582;5.298;2024-03-08T10:34:34;11.90;69.10
33827;DHT22;20128;45.582;5.298;2024-03-08T10:37:14;11.80;69.30
33827;DHT22;20128;45.582;5.298;2024-03-08T10:39:46;11.80;67.50
33827;DHT22;20128;45.582;5.298;2024-03-08T10:42:16;11.80;67.80
33827;DHT22;20128;45.582;5.298;2024-03-08T10:45:11;11.80;68.60
33827;DHT22;20128;45.582;5.298;2024-03-08T10:47:41;11.80;69.50
33827;DHT22;20128;45.582;5.298;2024-03-08T10:50:16;11.80;69.50
33827;DHT22;20128;45.582;5.298;2024-03-08T10:52:47;11.80;69.80
33827;DHT22;20128;45.582;5.298;2024-03-08T10:55:15;11.90;70.00
33827;DHT22;20128;45.582;5.298;2024-03-08T10:57:42;11.90;69.60
33827;DHT22;20128;45.582;5.298;2024-03-08T11:00:09;11.90;68.50
33827;DHT22;20128;45.582;5.298;2024-03-08T11:02:36;11.80;68.60
33827;DHT22;20128;45.582;5.298;2024-03-08T11:05:03;11.80;69.30
33827;DHT22;20128;45.582;5.298;2024-03-08T11:07:34;11.80;69.40
33827;DHT22;20128;45.582;5.298;2024-03-08T11:10:03;11.70;67.90
33827;DHT22;20128;45.582;5.298;2024-03-08T11:12:38;11.70;68.40
33827;DHT22;20128;45.582;5.298;2024-03-08T11:15:11;11.70;68.70
33827;DHT22;20128;45.582;5.298;2024-03-08T11:20:19;11.60;69.20
33827;DHT22;20128;45.582;5.298;2024-03-08T11:22:52;11.60;69.20
33827;DHT22;20128;45.582;5.298;2024-03-08T11:28:19;11.50;69.60
33827;DHT22;20128;45.582;5.298;2024-03-08T11:33:32;11.50;69.60
33827;DHT22;20128;45.582;5.298;2024-03-08T11:36:13;11.50;69.70
33827;DHT22;20128;45.582;5.298;2024-03-08T11:38:44;11.50;69.60
33827;DHT22;20128;45.582;5.298;2024-03-08T11:41:10;11.50;69.70
33827;DHT22;20128;45.582;5.298;2024-03-08T11:43:40;11.50;69.70
33827;DHT22;20128;45.582;5.298;2024-03-08T11:46:11;11.50;69.50
33827;DHT22;20128;45.582;5.298;2024-03-08T11:48:41;11.50;69.80
33827;DHT22;20128;45.582;5.298;2024-03-08T11:51:11;11.40;69.80
33827;DHT22;20128;45.582;5.298;2024-03-08T11:53:37;11.40;69.80
33827;DHT22;20128;45.582;5.298;2024-03-08T11:56:11;11.40;69.40
33827;DHT22;20128;45.582;5.298;2024-03-08T11:58:38;11.50;69.60
33827;DHT22;20128;45.582;5.298;2024-03-08T12:01:08;11.50;69.70
33827;DHT22;20128;45.582;5.298;2024-03-08T12:03:40;11.50;69.80
33827;DHT22;20128;45.582;5.298;2024-03-08T12:06:08;11.40;70.00
33827;DHT22;20128;45.582;5.298;2024-03-08T12:08:35;11.40;69.60
33827;DHT22;20128;45.582;5.298;2024-03-08T12:11:01;11.50;69.60
33827;DHT22;20128;45.582;5.298;2024-03-08T12:13:31;11.50;69.80
33827;DHT22;20128;45.582;5.298;2024-03-08T12:16:02;11.50;70.00
33827;DHT22;20128;45.582;5.298;2024-03-08T12:18:33;11.50;70.30
33827;DHT22;20128;45.582;5.298;2024-03-08T12:21:10;11.50;70.60
33827;DHT22;20128;45.582;5.298;2024-03-08T12:23:37;11.50;70.10
33827;DHT22;20128;45.582;5.298;2024-03-08T12:26:18;11.60;70.30
33827;DHT22;20128;45.582;5.298;2024-03-08T12:28:45;11.60;70.50
33827;DHT22;20128;45.582;5.298;2024-03-08T12:31:18;11.60;70.60
33827;DHT22;20128;45.582;5.298;2024-03-08T12:33:52;11.60;70.20
33827;DHT22;20128;45.582;5.298;2024-03-08T12:36:19;11.70;70.50
33827;DHT22;20128;45.582;5.298;2024-03-08T12:38:48;11.80;70.40
33827;DHT22;20128;45.582;5.298;2024-03-08T12:41:17;11.90;70.00
33827;DHT22;20128;45.582;5.298;2024-03-08T12:43:47;12.00;70.30
33827;DHT22;20128;45.582;5.298;2024-03-08T12:46:16;12.00;69.60
33827;DHT22;20128;45.582;5.298;2024-03-08T12:48:43;12.00;69.60
33827;DHT22;20128;45.582;5.298;2024-03-08T12:51:12;12.00;69.40
33827;DHT22;20128;45.582;5.298;2024-03-08T12:53:38;12.00;69.30
33827;DHT22;20128;45.582;5.298;2024-03-08T12:56:06;12.00;68.80
33827;DHT22;20128;45.582;5.298;2024-03-08T12:58:34;12.00;69.40
33827;DHT22;20128;45.582;5.298;2024-03-08T13:01:02;12.00;68.90
33827;DHT22;20128;45.582;5.298;2024-03-08T13:03:30;12.10;69.10
33827;DHT22;20128;45.582;5.298;2024-03-08T13:05:56;12.10;69.60
33827;DHT22;20128;45.582;5.298;2024-03-08T13:08:22;12.10;69.30
33827;DHT22;20128;45.582;5.298;2024-03-08T13:10:50;12.20;68.70
33827;DHT22;20128;45.582;5.298;2024-03-08T13:13:16;12.20;68.50
33827;DHT22;20128;45.582;5.298;2024-03-08T13:15:42;12.10;68.40
33827;DHT22;20128;45.582;5.298;2024-03-08T13:18:08;12.20;68.60
33827;DHT22;20128;45.582;5.298;2024-03-08T13:20:35;12.20;68.60
33827;DHT22;20128;45.582;5.298;2024-03-08T13:23:04;12.20;69.00
33827;DHT22;20128;45.582;5.298;2024-03-08T13:25:30;12.30;69.20
33827;DHT22;20128;45.582;5.298;2024-03-08T13:27:56;12.20;69.50
33827;DHT22;20128;45.582;5.298;2024-03-08T13:30:24;12.30;69.60
33827;DHT22;20128;45.582;5.298;2024-03-08T13:32:52;12.30;69.70
33827;DHT22;20128;45.582;5.298;2024-03-08T13:35:18;12.30;69.70
33827;DHT22;20128;45.582;5.298;2024-03-08T13:37:50;12.40;70.00
33827;DHT22;20128;45.582;5.298;2024-03-08T13:40:17;12.50;70.10
33827;DHT22;20128;45.582;5.298;2024-03-08T13:42:46;12.50;70.00
33827;DHT22;20128;45.582;5.298;2024-03-08T13:45:12;12.50;70.10
33827;DHT22;20128;45.582;5.298;2024-03-08T13:47:39;12.50;69.90
33827;DHT22;20128;45.582;5.298;2024-03-08T13:50:06;12.60;69.60
33827;DHT22;20128;45.582;5.298;2024-03-08T13:52:33;12.60;69.60
33827;DHT22;20128;45.582;5.298;2024-03-08T13:55:02;12.70;69.10
33827;DHT22;20128;45.582;5.298;2024-03-08T13:57:28;12.80;69.50
33827;DHT22;20128;45.582;5.298;2024-03-08T13:59:54;12.80;69.90
33827;DHT22;20128;45.582;5.298;2024-03-08T14:02:20;12.80;69.30
33827;DHT22;20128;45.582;5.298;2024-03-08T14:04:48;12.90;69.50
33827;DHT22;20128;45.582;5.298;2024-03-08T14:07:15;12.90;70.00
33827;DHT22;20128;45.582;5.298;2024-03-08T14:09:41;12.90;69.40
33827;DHT22;20128;45.582;5.298;2024-03-08T14:12:09;12.90;69.70
33827;DHT22;20128;45.582;5.298;2024-03-08T14:14:35;12.90;70.50
33827;DHT22;20128;45.582;5.298;2024-03-08T14:17:01;12.90;69.50
33827;DHT22;20128;45.582;5.298;2024-03-08T14:19:27;12.90;69.90
33827;DHT22;20128;45.582;5.298;2024-03-08T14:21:53;12.90;70.30
33827;DHT22;20128;45.582;5.298;2024-03-08T14:24:20;12.90;70.70
33827;DHT22;20128;45.582;5.298;2024-03-08T14:26:45;12.90;71.00
33827;DHT22;20128;45.582;5.298;2024-03-08T14:29:14;12.90;71.60
33827;DHT22;20128;45.582;5.298;2024-03-08T14:31:40;13.00;71.80
33827;DHT22;20128;45.582;5.298;2024-03-08T14:34:07;13.00;72.30
33827;DHT22;20128;45.582;5.298;2024-03-08T14:36:33;13.00;71.80
33827;DHT22;20128;45.582;5.298;2024-03-08T14:38:58;13.00;72.30
33827;DHT22;20128;45.582;5.298;2024-03-08T14:41:24;13.00;72.80
33827;DHT22;20128;45.582;5.298;2024-03-08T14:43:50;13.00;73.00
33827;DHT22;20128;45.582;5.298;2024-03-08T14:46:18;12.90;72.40
33827;DHT22;20128;45.582;5.298;2024-03-08T14:48:49;12.90;72.70
33827;DHT22;20128;45.582;5.298;2024-03-08T14:51:19;12.90;73.00
33827;DHT22;20128;45.582;5.298;2024-03-08T14:53:48;12.90;73.30
33827;DHT22;20128;45.582;5.298;2024-03-08T14:56:15;12.90;73.30
33827;DHT22;20128;45.582;5.298;2024-03-08T14:58:45;12.90;73.60
33827;DHT22;20128;45.582;5.298;2024-03-08T15:01:12;13.00;73.60
33827;DHT22;20128;45.582;5.298;2024-03-08T15:03:44;12.90;73.50
33827;DHT22;20128;45.582;5.298;2024-03-08T15:06:09;12.90;73.80
33827;DHT22;20128;45.582;5.298;2024-03-08T15:08:39;12.90;73.60
33827;DHT22;20128;45.582;5.298;2024-03-08T15:11:08;12.90;73.40
33827;DHT22;20128;45.582;5.298;2024-03-08T15:13:34;12.90;73.40
33827;DHT22;20128;45.582;5.298;2024-03-08T15:16:14;12.90;73.60
33827;DHT22;20128;45.582;5.298;2024-03-08T15:18:43;12.90;73.70
33827;DHT22;20128;45.582;5.298;2024-03-08T15:21:12;12.90;73.60
33827;DHT22;20128;45.582;5.298;2024-03-08T15:23:43;12.90;73.90
33827;DHT22;20128;45.582;5.298;2024-03-08T15:26:13;12.90;74.00
33827;DHT22;20128;45.582;5.298;2024-03-08T15:28:38;12.80;74.20
33827;DHT22;20128;45.582;5.298;2024-03-08T15:31:06;12.80;74.00
33827;DHT22;20128;45.582;5.298;2024-03-08T15:33:36;12.70;74.40
33827;DHT22;20128;45.582;5.298;2024-03-08T15:36:10;12.60;74.90
33827;DHT22;20128;45.582;5.298;2024-03-08T15:38:37;12.60;75.30
33827;DHT22;20128;45.582;5.298;2024-03-08T15:41:06;12.60;76.00
33827;DHT22;20128;45.582;5.298;2024-03-08T15:43:41;12.50;76.10
33827;DHT22;20128;45.582;5.298;2024-03-08T15:46:10;12.50;76.10
33827;DHT22;20128;45.582;5.298;2024-03-08T15:48:37;12.50;77.00